Minduri, Brazil
Current Conditions -  °F | °C
As of 7:00 AM on Friday 28 Nov 2014 (Local Time) from SBBQ Reporting Station
Broken Clouds Broken Clouds  
Wind Chill: 64°   Ceiling: 9000
Heat Index: 64°   Visibility: 5mi
Dew Point: 63°   Wind: 3mph
Humidity: 94%   Direction: 140°SE
Pressure: 30.09"   Gusts: NA
Location:  21.68°S, 44.6°W
Report Text: SBBQ 280900Z 14003KT 8000 SCT010 BKN090 18/17 Q1019
Loading
Personal Weather Stations






























Interactive Weather Map New forecast layout! Learn more

10-Day Weather Forecast

Advertisements
Track Severe Weather on mobile